createdAt,value
2023-02-19T07:16:19.116Z,7.00
2023-02-19T07:19:23.335Z,7.10
2023-02-19T07:22:25.178Z,7.00
2023-02-19T07:25:26.875Z,7.10
2023-02-19T07:28:28.520Z,7.20
2023-02-19T07:31:30.306Z,7.20
2023-02-19T07:34:32.243Z,7.20
2023-02-19T07:37:33.901Z,7.30
2023-02-19T07:40:36.621Z,7.40
2023-02-19T07:43:38.485Z,7.40
2023-02-19T07:46:40.112Z,7.40
2023-02-19T07:49:41.745Z,7.50
2023-02-19T07:52:43.391Z,7.50
2023-02-19T07:55:45.288Z,7.50
2023-02-19T07:58:46.994Z,7.60
2023-02-19T08:02:07.246Z,7.70
2023-02-19T08:05:09.232Z,7.70
2023-02-19T08:08:14.559Z,7.80
2023-02-19T08:11:34.962Z,7.80
2023-02-19T08:14:36.727Z,7.80
2023-02-19T08:17:38.733Z,7.80
2023-02-19T08:20:40.796Z,7.80
2023-02-19T08:23:42.660Z,7.90
2023-02-19T08:26:44.351Z,8.00
2023-02-19T08:29:45.993Z,8.00
2023-02-19T08:32:47.658Z,7.90
2023-02-19T08:35:49.482Z,7.90
2023-02-19T08:38:51.111Z,7.90
2023-02-19T08:41:52.744Z,8.00
2023-02-19T08:44:54.465Z,8.00
2023-02-19T08:47:56.101Z,7.90
2023-02-19T08:50:59.268Z,8.00
2023-02-19T08:54:03.384Z,7.90
2023-02-19T08:57:05.319Z,8.00
2023-02-19T09:00:07.494Z,8.00
2023-02-19T09:03:09.666Z,8.00
2023-02-19T09:06:17.299Z,8.00
2023-02-19T09:09:18.950Z,8.00
2023-02-19T09:12:20.817Z,8.00
2023-02-19T09:15:22.520Z,8.00
2023-02-19T09:18:24.978Z,8.00
2023-02-19T09:21:26.634Z,8.00
2023-02-19T09:24:28.595Z,8.00
2023-02-19T09:27:32.214Z,8.00
2023-02-19T09:30:33.925Z,8.00
2023-02-19T09:33:35.790Z,8.10
2023-02-19T09:36:38.250Z,8.20
2023-02-19T09:39:39.875Z,8.30
2023-02-19T09:42:42.508Z,8.40
2023-02-19T09:45:44.483Z,8.40
2023-02-19T09:48:46.130Z,8.40
2023-02-19T09:51:50.739Z,8.50
2023-02-19T09:54:57.524Z,8.60
2023-02-19T09:57:59.608Z,8.70
2023-02-19T10:01:02.362Z,8.80
2023-02-19T10:04:04.448Z,8.90
2023-02-19T10:07:08.320Z,9.00
2023-02-19T10:10:26.720Z,9.10
2023-02-19T10:13:34.516Z,9.20
2023-02-19T10:16:40.407Z,9.20
2023-02-19T10:19:42.078Z,9.20
2023-02-19T10:22:43.796Z,9.40
2023-02-19T10:25:57.182Z,9.40
2023-02-19T10:28:58.823Z,9.50
2023-02-19T10:32:29.792Z,9.50
2023-02-19T10:35:34.876Z,9.60
2023-02-19T10:38:40.390Z,9.60
2023-02-19T10:41:44.154Z,9.60
2023-02-19T10:44:51.783Z,9.50
2023-02-19T10:47:53.426Z,9.40
2023-02-19T10:50:58.192Z,9.40
2023-02-19T10:54:28.456Z,9.50
2023-02-19T10:57:32.622Z,9.60
2023-02-19T11:00:34.473Z,9.60
2023-02-19T11:03:36.387Z,9.80
2023-02-19T11:06:38.047Z,10.00
2023-02-19T11:09:40.601Z,10.20
2023-02-19T11:12:42.277Z,10.40
2023-02-19T11:15:44.119Z,10.40
2023-02-19T11:18:45.884Z,10.40
2023-02-19T11:21:47.536Z,10.40
2023-02-19T11:24:50.375Z,10.40
2023-02-19T11:28:06.843Z,10.40
2023-02-19T11:31:26.944Z,10.40
2023-02-19T11:34:30.064Z,10.40
2023-02-19T11:37:31.758Z,10.40
2023-02-19T11:40:55.541Z,10.30
2023-02-19T11:44:25.681Z,10.30
2023-02-19T11:47:42.434Z,10.30
2023-02-19T11:51:03.370Z,10.30
2023-02-19T11:54:09.121Z,10.30
2023-02-19T11:57:33.260Z,10.30
2023-02-19T12:00:40.969Z,10.40
2023-02-19T12:04:16.087Z,10.50
2023-02-19T12:07:23.041Z,10.60
2023-02-19T12:10:42.668Z,10.60
2023-02-19T12:13:55.976Z,10.80
2023-02-19T12:17:30.155Z,11.00
2023-02-19T12:20:34.615Z,11.10
2023-02-19T12:24:01.231Z,11.30
2023-02-19T12:27:09.948Z,11.30
2023-02-19T12:30:49.080Z,11.30
2023-02-19T12:34:24.700Z,11.20
2023-02-19T12:38:04.765Z,11.20
2023-02-19T12:41:23.213Z,11.30
2023-02-19T12:44:38.146Z,11.30
2023-02-19T12:47:40.740Z,11.40
2023-02-19T12:50:42.439Z,11.50
2023-02-19T12:53:52.192Z,11.70
2023-02-19T12:57:09.083Z,11.70
2023-02-19T13:00:42.715Z,11.80
2023-02-19T13:03:53.672Z,11.90
2023-02-19T13:07:17.190Z,11.90
2023-02-19T13:10:37.659Z,11.90
2023-02-19T13:14:00.476Z,12.00
2023-02-19T13:17:19.946Z,12.00
2023-02-19T13:20:37.259Z,11.90
2023-02-19T13:23:58.695Z,11.90
2023-02-19T13:27:00.259Z,11.90
2023-02-19T13:30:08.239Z,11.90
2023-02-19T13:33:34.660Z,12.00
2023-02-19T13:36:36.320Z,12.10
2023-02-19T13:39:38.017Z,12.10
2023-02-19T13:42:39.652Z,12.10
2023-02-19T13:45:48.632Z,12.10
2023-02-19T13:48:50.584Z,12.20
2023-02-19T13:51:59.243Z,12.30
2023-02-19T13:55:56.947Z,12.30
2023-02-19T13:58:59.639Z,12.30
2023-02-19T14:02:01.243Z,12.20
2023-02-19T14:05:05.691Z,12.10
2023-02-19T14:08:08.208Z,12.10
2023-02-19T14:11:14.121Z,12.20
2023-02-19T14:14:31.960Z,12.20
2023-02-19T14:17:40.302Z,12.30
2023-02-19T14:20:45.034Z,12.50
2023-02-19T14:23:52.320Z,12.50
2023-02-19T14:26:53.959Z,12.70
2023-02-19T14:29:55.656Z,12.90
2023-02-19T14:33:09.759Z,12.90
2023-02-19T14:36:32.492Z,12.90
2023-02-19T14:39:36.353Z,12.90
2023-02-19T14:42:38.057Z,12.90
2023-02-19T14:45:48.569Z,12.90
2023-02-19T14:48:50.294Z,12.90
2023-02-19T14:51:59.295Z,13.00
2023-02-19T14:55:02.088Z,13.10
2023-02-19T14:58:10.832Z,13.30
2023-02-19T15:01:28.196Z,13.40
2023-02-19T15:04:34.992Z,13.50
2023-02-19T15:07:36.669Z,13.90
2023-02-19T15:10:38.454Z,14.20
2023-02-19T15:13:45.471Z,14.50
2023-02-19T15:16:47.149Z,14.80
2023-02-19T15:19:48.828Z,15.10
2023-02-19T15:22:50.485Z,15.40
2023-02-19T15:25:52.480Z,15.60
2023-02-19T15:28:59.191Z,15.80
2023-02-19T15:32:00.995Z,16.00
2023-02-19T15:35:04.245Z,16.00
2023-02-19T15:38:06.389Z,16.10
2023-02-19T15:41:13.532Z,16.40
2023-02-19T15:44:32.613Z,16.50
2023-02-19T15:47:39.813Z,16.70
2023-02-19T15:50:46.382Z,16.70
2023-02-19T15:53:50.970Z,16.90
2023-02-19T15:56:52.631Z,17.00
2023-02-19T16:00:13.136Z,17.00
2023-02-19T16:03:22.582Z,17.00
2023-02-19T16:06:26.714Z,17.00
2023-02-19T16:09:39.488Z,17.20
2023-02-19T16:12:41.140Z,17.30
2023-02-19T16:15:45.695Z,17.40
2023-02-19T16:18:48.824Z,17.30
2023-02-19T16:21:51.179Z,17.20
2023-02-19T16:24:57.160Z,17.20
2023-02-19T16:27:59.112Z,17.20
2023-02-19T16:31:09.199Z,17.20
2023-02-19T16:34:49.140Z,17.20
2023-02-19T16:37:58.097Z,16.90
2023-02-19T16:41:06.596Z,16.10
2023-02-19T16:44:32.297Z,15.40
2023-02-19T16:47:36.478Z,14.70
2023-02-19T16:50:41.284Z,14.10
2023-02-19T16:53:42.965Z,13.60
2023-02-19T16:56:44.641Z,13.30
2023-02-19T16:59:47.100Z,13.00
2023-02-19T17:02:50.142Z,12.70
2023-02-19T17:05:51.938Z,12.50
2023-02-19T17:08:53.637Z,12.20
2023-02-19T17:11:55.313Z,12.00
2023-02-19T17:14:57.026Z,11.80
2023-02-19T17:17:58.652Z,11.60
2023-02-19T17:21:18.036Z,11.40
2023-02-19T17:24:19.927Z,11.30
2023-02-19T17:27:21.583Z,11.10
2023-02-19T17:30:27.634Z,10.90
2023-02-19T17:33:29.425Z,10.80
2023-02-19T17:36:31.768Z,10.70
2023-02-19T17:39:33.413Z,10.50
2023-02-19T17:42:37.743Z,10.40
2023-02-19T17:45:39.586Z,10.30
2023-02-19T17:48:41.338Z,10.20
2023-02-19T17:51:42.999Z,10.00
2023-02-19T17:54:47.580Z,10.00
2023-02-19T17:57:51.668Z,9.80
2023-02-19T18:00:56.058Z,9.70
2023-02-19T18:03:58.088Z,9.70
2023-02-19T18:07:02.810Z,9.60
2023-02-19T18:10:05.355Z,9.50
2023-02-19T18:13:06.988Z,9.50
2023-02-19T18:16:09.930Z,9.40
2023-02-19T18:19:11.873Z,9.40
2023-02-19T18:22:18.051Z,9.40
2023-02-19T18:25:20.182Z,9.40
2023-02-19T18:28:21.838Z,9.40
2023-02-19T18:31:23.672Z,9.40
2023-02-19T18:34:26.804Z,9.40
2023-02-19T18:37:30.970Z,9.40
2023-02-19T18:40:32.658Z,9.30
2023-02-19T18:43:34.289Z,9.30
2023-02-19T18:46:35.949Z,9.30
2023-02-19T18:49:37.697Z,9.20
2023-02-19T18:52:39.365Z,9.20
2023-02-19T18:55:41.245Z,9.20
2023-02-19T18:58:42.913Z,9.20
2023-02-19T19:01:45.027Z,9.10
2023-02-19T19:04:51.192Z,9.00
2023-02-19T19:07:54.057Z,9.00
2023-02-19T19:10:55.719Z,9.00
2023-02-19T19:13:57.651Z,9.00
2023-02-19T19:17:00.189Z,8.90
2023-02-19T19:20:01.891Z,8.90
2023-02-19T19:23:05.939Z,8.80
2023-02-19T19:26:07.764Z,8.80
2023-02-19T19:29:09.515Z,8.70
2023-02-19T19:32:11.519Z,8.60
2023-02-19T19:35:16.332Z,8.60
2023-02-19T19:38:17.948Z,8.60
2023-02-19T19:41:19.811Z,8.50
2023-02-19T19:44:23.013Z,8.50
2023-02-19T19:47:24.659Z,8.50
2023-02-19T19:50:26.395Z,8.40
2023-02-19T19:53:28.059Z,8.40
2023-02-19T19:56:30.276Z,8.40
2023-02-19T19:59:32.078Z,8.40
2023-02-19T20:02:33.751Z,8.30
2023-02-19T20:05:35.673Z,8.30
2023-02-19T20:08:37.312Z,8.30
2023-02-19T20:11:49.665Z,8.30
2023-02-19T20:14:51.424Z,8.20
2023-02-19T20:17:53.121Z,8.10
2023-02-19T20:20:54.751Z,8.10
2023-02-19T20:23:56.610Z,8.10
2023-02-19T20:27:01.954Z,8.00
2023-02-19T20:30:04.506Z,8.00
2023-02-19T20:33:09.412Z,8.00
2023-02-19T20:36:13.804Z,8.00
2023-02-19T20:39:19.451Z,8.00
2023-02-19T20:42:21.256Z,8.00
2023-02-19T20:45:25.580Z,8.00
2023-02-19T20:48:30.404Z,8.00
2023-02-19T20:52:02.919Z,7.90
2023-02-19T20:55:05.147Z,7.90
2023-02-19T20:58:09.746Z,7.90
2023-02-19T21:01:12.031Z,7.90
2023-02-19T21:04:14.157Z,7.80
2023-02-19T21:07:15.879Z,7.80
2023-02-19T21:10:17.690Z,7.80
2023-02-19T21:13:22.024Z,7.80
2023-02-19T21:16:26.076Z,7.80
2023-02-19T21:19:29.819Z,7.80
2023-02-19T21:22:31.452Z,7.70
2023-02-19T21:25:33.328Z,7.70
2023-02-19T21:28:34.970Z,7.60
2023-02-19T21:31:47.378Z,7.60
2023-02-19T21:34:50.726Z,7.60
2023-02-19T21:37:55.281Z,7.60
2023-02-19T21:40:59.417Z,7.60
2023-02-19T21:44:03.478Z,7.50
2023-02-19T21:47:05.191Z,7.50
2023-02-19T21:50:07.459Z,7.50
2023-02-19T21:53:09.200Z,7.50
2023-02-19T21:56:11.160Z,7.50
2023-02-19T21:59:13.056Z,7.50
2023-02-19T22:02:15.001Z,7.40
2023-02-19T22:05:16.888Z,7.40
2023-02-19T22:08:18.765Z,7.40
